Accueil
METAR-TAF:

METAR-TAF

Aéroports :

Okayama, Japon

latitude: 34-45N, longitude: 133-51E, altitude: 241 m

Observation

Le bulletin a été fait il y a 46 minutes, à 09:00 UTC
Vent 2 kt de direction variable
Température 23°C
Humidité 78%
Pression 1014 hPa
Visibilité 10 km ou plus
Quelques nuages à une hauteur de 2000 ft
Nuages fragmentés

METAR: RJOB 220900Z VRB02KT 9999 FEW020 BKN/// 23/19 Q1014

Heure: 18:46 (09:46 UTC)

Prévision

Le bulletin a été fait il y a 4 heures et 41 minutes, à 05:05 UTC
Prévision valable du 22 à 06 UTC au 23 à 12 UTC
Vent 6 kt de nord
Visibilité 10 km ou plus
Quelques nuages à une hauteur de 2000 ft
Evoluant progressivement
du 23 à 03 UTC au 23 à 06 UTC
Vent 5 kt de sud

TAF: RJOB 220505Z 2206/2312 35006KT 9999 FEW020 BECMG 2303/2306 18005KT

Observations et prévisions météorologiques de plus de 4000 aéroports (messages METAR et TAF).

Les stations disponibles sont représentées par des disques jaunes et rouges sur la carte.

Passer la souris dessus pour voir le nom de la station.

Cliquer dessus pour voir les observations et prévisions météorologiques.

Pour changer de carte: cliquez sur les boutons verts avec une croix noire pour zoomer, sur le bouton vert avec un tiret pour effectuer un zoom arrière, ou sur les flèches vertes pour les cartes adjacentes.


METAR-TAF: